sensor_id;sensor_type;location;lat;lon;timestamp;pressure;altitude;pressure_sealevel;temperature;humidity
60337;BME280;46978;50.288;28.624;2023-04-06T00:00:48;98438.02;;;1.63;100.00
60337;BME280;46978;50.288;28.624;2023-04-06T00:01:50;98439.70;;;1.63;100.00
60337;BME280;46978;50.288;28.624;2023-04-06T00:02:51;98428.63;;;1.62;100.00
60337;BME280;46978;50.288;28.624;2023-04-06T00:03:53;98425.23;;;1.61;100.00
60337;BME280;46978;50.288;28.624;2023-04-06T00:04:56;98428.63;;;1.64;100.00
60337;BME280;46978;50.288;28.624;2023-04-06T00:05:57;98426.92;;;1.64;100.00
60337;BME280;46978;50.288;28.624;2023-04-06T00:06:59;98435.45;;;1.61;100.00
60337;BME280;46978;50.288;28.624;2023-04-06T00:08:01;98425.23;;;1.63;100.00
60337;BME280;46978;50.288;28.624;2023-04-06T00:09:03;98421.80;;;1.64;100.00
60337;BME280;46978;50.288;28.624;2023-04-06T00:10:06;98411.58;;;1.66;100.00
60337;BME280;46978;50.288;28.624;2023-04-06T00:11:08;98414.14;;;1.67;100.00
60337;BME280;46978;50.288;28.624;2023-04-06T00:12:10;98421.81;;;1.66;100.00
60337;BME280;46978;50.288;28.624;2023-04-06T00:13:12;98409.90;;;1.68;100.00
60337;BME280;46978;50.288;28.624;2023-04-06T00:14:33;98421.81;;;1.69;100.00
60337;BME280;46978;50.288;28.624;2023-04-06T00:15:35;98412.45;;;1.66;100.00
60337;BME280;46978;50.288;28.624;2023-04-06T00:16:39;98415.02;;;1.69;100.00
60337;BME280;46978;50.288;28.624;2023-04-06T00:17:41;98418.42;;;1.71;100.00
60337;BME280;46978;50.288;28.624;2023-04-06T00:18:43;98415.02;;;1.71;100.00
60337;BME280;46978;50.288;28.624;2023-04-06T00:19:44;98410.75;;;1.71;100.00
60337;BME280;46978;50.288;28.624;2023-04-06T00:20:46;98416.70;;;1.72;100.00
60337;BME280;46978;50.288;28.624;2023-04-06T00:21:48;98404.80;;;1.74;100.00
60337;BME280;46978;50.288;28.624;2023-04-06T00:22:49;98403.09;;;1.76;100.00
60337;BME280;46978;50.288;28.624;2023-04-06T00:23:51;98399.69;;;1.77;100.00
60337;BME280;46978;50.288;28.624;2023-04-06T00:24:53;98395.42;;;1.79;100.00
60337;BME280;46978;50.288;28.624;2023-04-06T00:25:55;98386.03;;;1.78;100.00
60337;BME280;46978;50.288;28.624;2023-04-06T00:26:58;98381.80;;;1.82;100.00
60337;BME280;46978;50.288;28.624;2023-04-06T00:27:59;98392.86;;;1.82;100.00
60337;BME280;46978;50.288;28.624;2023-04-06T00:29:01;98387.75;;;1.85;100.00
60337;BME280;46978;50.288;28.624;2023-04-06T00:30:04;98386.91;;;1.85;100.00
60337;BME280;46978;50.288;28.624;2023-04-06T00:31:06;98381.80;;;1.86;100.00
60337;BME280;46978;50.288;28.624;2023-04-06T00:32:08;98385.20;;;1.88;100.00
60337;BME280;46978;50.288;28.624;2023-04-06T00:33:11;98384.36;;;1.89;100.00
60337;BME280;46978;50.288;28.624;2023-04-06T00:34:13;98374.97;;;1.93;100.00
60337;BME280;46978;50.288;28.624;2023-04-06T00:35:15;98385.20;;;1.96;100.00
60337;BME280;46978;50.288;28.624;2023-04-06T00:36:17;98385.20;;;1.96;100.00
60337;BME280;46978;50.288;28.624;2023-04-06T00:37:19;98377.53;;;1.99;100.00
60337;BME280;46978;50.288;28.624;2023-04-06T00:38:21;98369.02;;;2.02;100.00
60337;BME280;46978;50.288;28.624;2023-04-06T00:39:23;98371.57;;;2.03;100.00
60337;BME280;46978;50.288;28.624;2023-04-06T00:40:25;98372.41;;;2.07;100.00
60337;BME280;46978;50.288;28.624;2023-04-06T00:41:27;98373.26;;;2.09;100.00
60337;BME280;46978;50.288;28.624;2023-04-06T00:42:29;98374.97;;;2.10;100.00
60337;BME280;46978;50.288;28.624;2023-04-06T00:43:33;98380.94;;;2.10;100.00
60337;BME280;46978;50.288;28.624;2023-04-06T00:44:35;98375.81;;;2.12;100.00
60337;BME280;46978;50.288;28.624;2023-04-06T00:45:38;98374.13;;;2.11;100.00
60337;BME280;46978;50.288;28.624;2023-04-06T00:46:42;98377.53;;;2.13;100.00
60337;BME280;46978;50.288;28.624;2023-04-06T00:47:43;98377.53;;;2.13;100.00
60337;BME280;46978;50.288;28.624;2023-04-06T00:48:45;98369.02;;;2.14;100.00
60337;BME280;46978;50.288;28.624;2023-04-06T00:49:47;98359.62;;;2.14;100.00
60337;BME280;46978;50.288;28.624;2023-04-06T00:50:49;98368.14;;;2.15;100.00
60337;BME280;46978;50.288;28.624;2023-04-06T00:51:52;98367.30;;;2.16;100.00
60337;BME280;46978;50.288;28.624;2023-04-06T00:52:54;98367.30;;;2.16;100.00
60337;BME280;46978;50.288;28.624;2023-04-06T00:53:56;98348.53;;;2.17;100.00
60337;BME280;46978;50.288;28.624;2023-04-06T00:54:58;98356.22;;;2.17;100.00
60337;BME280;46978;50.288;28.624;2023-04-06T00:55:59;98361.33;;;2.19;100.00
60337;BME280;46978;50.288;28.624;2023-04-06T00:57:01;98349.38;;;2.18;100.00
60337;BME280;46978;50.288;28.624;2023-04-06T00:58:03;98347.66;;;2.17;100.00
60337;BME280;46978;50.288;28.624;2023-04-06T00:59:05;98366.45;;;2.15;100.00
60337;BME280;46978;50.288;28.624;2023-04-06T01:00:09;98350.22;;;2.18;100.00
60337;BME280;46978;50.288;28.624;2023-04-06T01:01:11;98363.89;;;2.17;100.00
60337;BME280;46978;50.288;28.624;2023-04-06T01:02:13;98345.98;;;2.17;100.00
60337;BME280;46978;50.288;28.624;2023-04-06T01:03:17;98334.03;;;2.14;100.00
60337;BME280;46978;50.288;28.624;2023-04-06T01:04:19;98334.03;;;2.14;100.00
60337;BME280;46978;50.288;28.624;2023-04-06T01:05:21;98340.86;;;2.19;100.00
60337;BME280;46978;50.288;28.624;2023-04-06T01:06:23;98346.81;;;2.19;100.00
60337;BME280;46978;50.288;28.624;2023-04-06T01:07:24;98338.30;;;2.20;100.00
60337;BME280;46978;50.288;28.624;2023-04-06T01:08:26;98342.54;;;2.21;100.00
60337;BME280;46978;50.288;28.624;2023-04-06T01:09:28;98328.05;;;2.23;100.00
60337;BME280;46978;50.288;28.624;2023-04-06T01:10:30;98319.50;;;2.24;100.00
60337;BME280;46978;50.288;28.624;2023-04-06T01:11:32;98326.34;;;2.25;100.00
60337;BME280;46978;50.288;28.624;2023-04-06T01:12:34;98322.93;;;2.26;100.00
60337;BME280;46978;50.288;28.624;2023-04-06T01:13:37;98323.77;;;2.27;100.00
60337;BME280;46978;50.288;28.624;2023-04-06T01:14:38;98332.30;;;2.27;100.00
60337;BME280;46978;50.288;28.624;2023-04-06T01:15:40;98328.05;;;2.28;100.00
60337;BME280;46978;50.288;28.624;2023-04-06T01:16:43;98329.73;;;2.27;100.00
60337;BME280;46978;50.288;28.624;2023-04-06T01:17:45;98323.77;;;2.27;100.00
60337;BME280;46978;50.288;28.624;2023-04-06T01:18:46;98318.66;;;2.28;100.00
60337;BME280;46978;50.288;28.624;2023-04-06T01:19:48;98317.80;;;2.31;100.00
60337;BME280;46978;50.288;28.624;2023-04-06T01:20:50;98310.97;;;2.30;100.00
60337;BME280;46978;50.288;28.624;2023-04-06T01:21:52;98325.48;;;2.31;100.00
60337;BME280;46978;50.288;28.624;2023-04-06T01:22:56;98325.48;;;2.32;100.00
60337;BME280;46978;50.288;28.624;2023-04-06T01:23:57;98326.32;;;2.33;100.00
60337;BME280;46978;50.288;28.624;2023-04-06T01:24:59;98327.17;;;2.32;100.00
60337;BME280;46978;50.288;28.624;2023-04-06T01:26:01;98323.77;;;2.33;100.00
60337;BME280;46978;50.288;28.624;2023-04-06T01:27:03;98328.88;;;2.36;100.00
60337;BME280;46978;50.288;28.624;2023-04-06T01:28:05;98320.35;;;2.39;100.00
60337;BME280;46978;50.288;28.624;2023-04-06T01:29:06;98322.91;;;2.40;100.00
60337;BME280;46978;50.288;28.624;2023-04-06T01:30:10;98323.75;;;2.39;100.00
60337;BME280;46978;50.288;28.624;2023-04-06T01:31:12;98313.50;;;2.42;100.00
60337;BME280;46978;50.288;28.624;2023-04-06T01:32:14;98327.14;;;2.44;100.00
60337;BME280;46978;50.288;28.624;2023-04-06T01:33:15;98317.77;;;2.45;100.00
60337;BME280;46978;50.288;28.624;2023-04-06T01:34:19;98298.97;;;2.47;100.00
60337;BME280;46978;50.288;28.624;2023-04-06T01:35:22;98308.37;;;2.48;100.00
60337;BME280;46978;50.288;28.624;2023-04-06T01:36:24;98310.93;;;2.48;100.00
60337;BME280;46978;50.288;28.624;2023-04-06T01:37:26;98308.36;;;2.50;100.00
60337;BME280;46978;50.288;28.624;2023-04-06T01:38:28;98308.36;;;2.50;100.00
60337;BME280;46978;50.288;28.624;2023-04-06T01:39:30;98308.36;;;2.51;100.00
60337;BME280;46978;50.288;28.624;2023-04-06T01:40:32;98316.04;;;2.51;100.00
60337;BME280;46978;50.288;28.624;2023-04-06T01:41:34;98306.64;;;2.52;100.00
60337;BME280;46978;50.288;28.624;2023-04-06T01:42:37;98302.39;;;2.53;100.00
60337;BME280;46978;50.288;28.624;2023-04-06T01:43:39;98306.63;;;2.54;100.00
60337;BME280;46978;50.288;28.624;2023-04-06T01:44:43;98305.79;;;2.55;100.00
60337;BME280;46978;50.288;28.624;2023-04-06T01:45:44;98301.52;;;2.55;100.00
60337;BME280;46978;50.288;28.624;2023-04-06T01:46:48;98305.79;;;2.55;100.00
60337;BME280;46978;50.288;28.624;2023-04-06T01:47:50;98293.82;;;2.57;100.00
60337;BME280;46978;50.288;28.624;2023-04-06T01:48:51;98288.69;;;2.60;100.00
60337;BME280;46978;50.288;28.624;2023-04-06T01:49:53;98298.09;;;2.59;100.00
60337;BME280;46978;50.288;28.624;2023-04-06T01:50:55;98304.05;;;2.61;100.00
60337;BME280;46978;50.288;28.624;2023-04-06T01:51:58;98294.68;;;2.62;100.00
60337;BME280;46978;50.288;28.624;2023-04-06T01:53:00;98296.36;;;2.63;100.00
60337;BME280;46978;50.288;28.624;2023-04-06T01:54:01;98292.11;;;2.63;100.00
60337;BME280;46978;50.288;28.624;2023-04-06T01:55:04;98297.20;;;2.65;100.00
60337;BME280;46978;50.288;28.624;2023-04-06T01:56:06;98298.91;;;2.67;100.00
60337;BME280;46978;50.288;28.624;2023-04-06T01:57:08;98294.63;;;2.68;100.00
60337;BME280;46978;50.288;28.624;2023-04-06T01:58:10;98286.94;;;2.69;100.00
60337;BME280;46978;50.288;28.624;2023-04-06T01:59:11;98290.38;;;2.68;100.00
60337;BME280;46978;50.288;28.624;2023-04-06T02:00:16;98286.94;;;2.69;100.00
60337;BME280;46978;50.288;28.624;2023-04-06T02:01:19;98287.80;;;2.72;100.00
60337;BME280;46978;50.288;28.624;2023-04-06T02:02:20;98279.25;;;2.71;100.00
60337;BME280;46978;50.288;28.624;2023-04-06T02:03:22;98264.74;;;2.73;100.00
60337;BME280;46978;50.288;28.624;2023-04-06T02:04:24;98274.09;;;2.77;100.00
60337;BME280;46978;50.288;28.624;2023-04-06T02:05:26;98276.66;;;2.77;100.00
60337;BME280;46978;50.288;28.624;2023-04-06T02:06:28;98275.81;;;2.77;100.00
60337;BME280;46978;50.288;28.624;2023-04-06T02:07:29;98280.09;;;2.79;100.00
60337;BME280;46978;50.288;28.624;2023-04-06T02:08:31;98286.89;;;2.82;100.00
60337;BME280;46978;50.288;28.624;2023-04-06T02:09:33;98273.23;;;2.83;100.00
60337;BME280;46978;50.288;28.624;2023-04-06T02:10:35;98269.81;;;2.84;100.00
60337;BME280;46978;50.288;28.624;2023-04-06T02:11:36;98282.62;;;2.85;100.00
60337;BME280;46978;50.288;28.624;2023-04-06T02:12:38;98277.49;;;2.87;100.00
60337;BME280;46978;50.288;28.624;2023-04-06T02:13:40;98274.03;;;2.91;100.00
60337;BME280;46978;50.288;28.624;2023-04-06T02:14:42;98259.52;;;2.93;100.00
60337;BME280;46978;50.288;28.624;2023-04-06T02:15:44;98252.67;;;2.95;100.00
60337;BME280;46978;50.288;28.624;2023-04-06T02:16:46;98259.50;;;2.98;100.00
60337;BME280;46978;50.288;28.624;2023-04-06T02:17:48;98259.50;;;2.98;100.00
60337;BME280;46978;50.288;28.624;2023-04-06T02:18:50;98261.19;;;2.99;100.00
60337;BME280;46978;50.288;28.624;2023-04-06T02:19:53;98267.18;;;2.99;100.00
60337;BME280;46978;50.288;28.624;2023-04-06T02:20:55;98256.93;;;2.99;100.00
60337;BME280;46978;50.288;28.624;2023-04-06T02:21:57;98258.60;;;3.02;100.00
60337;BME280;46978;50.288;28.624;2023-04-06T02:22:59;98266.28;;;3.03;100.00
60337;BME280;46978;50.288;28.624;2023-04-06T02:24:01;98273.13;;;3.04;100.00
60337;BME280;46978;50.288;28.624;2023-04-06T02:25:03;98271.40;;;3.05;100.00
60337;BME280;46978;50.288;28.624;2023-04-06T02:26:07;98264.59;;;3.05;100.00
60337;BME280;46978;50.288;28.624;2023-04-06T02:27:08;98278.23;;;3.08;100.00
60337;BME280;46978;50.288;28.624;2023-04-06T02:28:10;98270.53;;;3.09;100.00
60337;BME280;46978;50.288;28.624;2023-04-06T02:29:12;98268.81;;;3.10;100.00
60337;BME280;46978;50.288;28.624;2023-04-06T02:30:16;98275.66;;;3.11;100.00
60337;BME280;46978;50.288;28.624;2023-04-06T02:31:17;98267.11;;;3.12;100.00
60337;BME280;46978;50.288;28.624;2023-04-06T02:32:19;98269.67;;;3.12;100.00
60337;BME280;46978;50.288;28.624;2023-04-06T02:33:21;98269.66;;;3.13;100.00
60337;BME280;46978;50.288;28.624;2023-04-06T02:34:23;98267.09;;;3.15;100.00
60337;BME280;46978;50.288;28.624;2023-04-06T02:35:25;98262.80;;;3.17;100.00
60337;BME280;46978;50.288;28.624;2023-04-06T02:36:27;98267.92;;;3.17;100.00
60337;BME280;46978;50.288;28.624;2023-04-06T02:37:28;98267.92;;;3.17;100.00
60337;BME280;46978;50.288;28.624;2023-04-06T02:38:30;98263.64;;;3.17;100.00
60337;BME280;46978;50.288;28.624;2023-04-06T02:39:32;98267.05;;;3.22;100.00
60337;BME280;46978;50.288;28.624;2023-04-06T02:40:34;98260.20;;;3.23;100.00
60337;BME280;46978;50.288;28.624;2023-04-06T02:41:36;98266.16;;;3.25;100.00
60337;BME280;46978;50.288;28.624;2023-04-06T02:42:38;98261.02;;;3.27;100.00
60337;BME280;46978;50.288;28.624;2023-04-06T02:43:40;98264.45;;;3.29;100.00
60337;BME280;46978;50.288;28.624;2023-04-06T02:44:42;98267.84;;;3.31;100.00
60337;BME280;46978;50.288;28.624;2023-04-06T02:45:46;98266.98;;;3.32;100.00
60337;BME280;46978;50.288;28.624;2023-04-06T02:46:48;98270.38;;;3.34;100.00
60337;BME280;46978;50.288;28.624;2023-04-06T02:47:49;98265.24;;;3.35;100.00
60337;BME280;46978;50.288;28.624;2023-04-06T02:48:51;98254.98;;;3.35;100.00
60337;BME280;46978;50.288;28.624;2023-04-06T02:49:53;98256.69;;;3.38;100.00
60337;BME280;46978;50.288;28.624;2023-04-06T02:50:55;98264.38;;;3.39;100.00
60337;BME280;46978;50.288;28.624;2023-04-06T02:51:59;98267.77;;;3.41;100.00
60337;BME280;46978;50.288;28.624;2023-04-06T02:53:03;98264.34;;;3.44;100.00
60337;BME280;46978;50.288;28.624;2023-04-06T02:54:06;98261.75;;;3.47;100.00
60337;BME280;46978;50.288;28.624;2023-04-06T02:55:08;98275.42;;;3.48;100.00
60337;BME280;46978;50.288;28.624;2023-04-06T02:56:10;98268.55;;;3.50;100.00
60337;BME280;46978;50.288;28.624;2023-04-06T02:57:12;98260.02;;;3.49;100.00
60337;BME280;46978;50.288;28.624;2023-04-06T02:58:13;98262.57;;;3.51;100.00
60337;BME280;46978;50.288;28.624;2023-04-06T02:59:15;98255.72;;;3.51;100.00
60337;BME280;46978;50.288;28.624;2023-04-06T03:00:18;98261.70;;;3.53;100.00
60337;BME280;46978;50.288;28.624;2023-04-06T03:01:19;98261.70;;;3.55;100.00
60337;BME280;46978;50.288;28.624;2023-04-06T03:02:21;98262.53;;;3.55;100.00
60337;BME280;46978;50.288;28.624;2023-04-06T03:03:23;98264.26;;;3.55;100.00
60337;BME280;46978;50.288;28.624;2023-04-06T03:04:25;98271.07;;;3.56;100.00
60337;BME280;46978;50.288;28.624;2023-04-06T03:05:27;98256.55;;;3.56;100.00
60337;BME280;46978;50.288;28.624;2023-04-06T03:06:29;98264.23;;;3.58;100.00
60337;BME280;46978;50.288;28.624;2023-04-06T03:07:32;98261.66;;;3.59;100.00
60337;BME280;46978;50.288;28.624;2023-04-06T03:08:36;98261.66;;;3.59;100.00
60337;BME280;46978;50.288;28.624;2023-04-06T03:09:37;98265.89;;;3.62;100.00
60337;BME280;46978;50.288;28.624;2023-04-06T03:10:39;98267.61;;;3.63;100.00
60337;BME280;46978;50.288;28.624;2023-04-06T03:11:41;98261.63;;;3.64;100.00
60337;BME280;46978;50.288;28.624;2023-04-06T03:12:43;98261.63;;;3.64;100.00
60337;BME280;46978;50.288;28.624;2023-04-06T03:13:45;98259.90;;;3.65;100.00
60337;BME280;46978;50.288;28.624;2023-04-06T03:14:47;98255.61;;;3.65;100.00
60337;BME280;46978;50.288;28.624;2023-04-06T03:15:48;98257.32;;;3.66;100.00
60337;BME280;46978;50.288;28.624;2023-04-06T03:16:50;98257.30;;;3.69;100.00
60337;BME280;46978;50.288;28.624;2023-04-06T03:17:53;98258.13;;;3.71;100.00
60337;BME280;46978;50.288;28.624;2023-04-06T03:18:55;98257.27;;;3.72;100.00
60337;BME280;46978;50.288;28.624;2023-04-06T03:19:57;98253.85;;;3.73;100.00
60337;BME280;46978;50.288;28.624;2023-04-06T03:20:59;98257.25;;;3.74;100.00
60337;BME280;46978;50.288;28.624;2023-04-06T03:22:00;98257.24;;;3.75;100.00
60337;BME280;46978;50.288;28.624;2023-04-06T03:23:02;98257.22;;;3.79;100.00
60337;BME280;46978;50.288;28.624;2023-04-06T03:24:05;98253.80;;;3.80;100.00
60337;BME280;46978;50.288;28.624;2023-04-06T03:25:09;98246.09;;;3.81;100.00
60337;BME280;46978;50.288;28.624;2023-04-06T03:26:11;98260.59;;;3.84;100.00
60337;BME280;46978;50.288;28.624;2023-04-06T03:27:12;98261.45;;;3.86;100.00
60337;BME280;46978;50.288;28.624;2023-04-06T03:28:14;98268.24;;;3.88;100.00
60337;BME280;46978;50.288;28.624;2023-04-06T03:29:16;98271.68;;;3.89;100.00
60337;BME280;46978;50.288;28.624;2023-04-06T03:30:18;98263.98;;;3.89;100.00
60337;BME280;46978;50.288;28.624;2023-04-06T03:31:20;98280.19;;;3.92;100.00
60337;BME280;46978;50.288;28.624;2023-04-06T03:32:22;98269.90;;;3.95;100.00
60337;BME280;46978;50.288;28.624;2023-04-06T03:33:24;98263.92;;;3.95;100.00
60337;BME280;46978;50.288;28.624;2023-04-06T03:34:25;98259.61;;;3.99;100.00
60337;BME280;46978;50.288;28.624;2023-04-06T03:35:27;98266.41;;;4.01;100.00
60337;BME280;46978;50.288;28.624;2023-04-06T03:36:29;98274.96;;;4.03;100.00
60337;BME280;46978;50.288;28.624;2023-04-06T03:37:31;98267.25;;;4.05;100.00
60337;BME280;46978;50.288;28.624;2023-04-06T03:38:36;98274.95;;;4.05;100.00
60337;BME280;46978;50.288;28.624;2023-04-06T03:39:37;98263.80;;;4.06;100.00
60337;BME280;46978;50.288;28.624;2023-04-06T03:40:39;98276.61;;;4.07;100.00
60337;BME280;46978;50.288;28.624;2023-04-06T03:41:41;98260.33;;;4.11;100.00
60337;BME280;46978;50.288;28.624;2023-04-06T03:42:43;98265.46;;;4.11;100.00
60337;BME280;46978;50.288;28.624;2023-04-06T03:43:46;98258.58;;;4.13;100.00
60337;BME280;46978;50.288;28.624;2023-04-06T03:44:49;98259.45;;;4.14;100.00
60337;BME280;46978;50.288;28.624;2023-04-06T03:45:54;98266.27;;;4.15;100.00
60337;BME280;46978;50.288;28.624;2023-04-06T03:46:58;98254.30;;;4.16;100.00
60337;BME280;46978;50.288;28.624;2023-04-06T03:48:01;98256.86;;;4.17;100.00
60337;BME280;46978;50.288;28.624;2023-04-06T03:49:03;98250.83;;;4.18;100.00
60337;BME280;46978;50.288;28.624;2023-04-06T03:50:05;98248.25;;;4.20;100.00
60337;BME280;46978;50.288;28.624;2023-04-06T03:51:09;98260.23;;;4.21;100.00
60337;BME280;46978;50.288;28.624;2023-04-06T03:52:11;98265.36;;;4.22;100.00
60337;BME280;46978;50.288;28.624;2023-04-06T03:53:13;98252.50;;;4.24;100.00
60337;BME280;46978;50.288;28.624;2023-04-06T03:54:17;98251.64;;;4.25;100.00
60337;BME280;46978;50.288;28.624;2023-04-06T03:55:18;98251.62;;;4.26;100.00
60337;BME280;46978;50.288;28.624;2023-04-06T03:56:20;98264.45;;;4.28;100.00
60337;BME280;46978;50.288;28.624;2023-04-06T03:57:22;98267.86;;;4.28;100.00
60337;BME280;46978;50.288;28.624;2023-04-06T03:58:24;98259.30;;;4.29;100.00
60337;BME280;46978;50.288;28.624;2023-04-06T03:59:25;98257.55;;;4.31;100.00
60337;BME280;46978;50.288;28.624;2023-04-06T04:00:27;98246.42;;;4.33;100.00
60337;BME280;46978;50.288;28.624;2023-04-06T04:01:29;98254.95;;;4.35;100.00
60337;BME280;46978;50.288;28.624;2023-04-06T04:02:31;98254.95;;;4.35;100.00
60337;BME280;46978;50.288;28.624;2023-04-06T04:03:32;98251.53;;;4.36;100.00
60337;BME280;46978;50.288;28.624;2023-04-06T04:04:36;98256.65;;;4.37;100.00
60337;BME280;46978;50.288;28.624;2023-04-06T04:05:38;98252.33;;;4.39;100.00
60337;BME280;46978;50.288;28.624;2023-04-06T04:06:40;98261.77;;;4.39;100.00
60337;BME280;46978;50.288;28.624;2023-04-06T04:07:42;98257.47;;;4.39;100.00
60337;BME280;46978;50.288;28.624;2023-04-06T04:08:44;98254.91;;;4.39;100.00
60337;BME280;46978;50.288;28.624;2023-04-06T04:09:45;98254.03;;;4.42;100.00
60337;BME280;46978;50.288;28.624;2023-04-06T04:10:47;98255.70;;;4.43;100.00
60337;BME280;46978;50.288;28.624;2023-04-06T04:11:49;98259.11;;;4.46;100.00
60337;BME280;46978;50.288;28.624;2023-04-06T04:12:51;98259.11;;;4.46;100.00
60337;BME280;46978;50.288;28.624;2023-04-06T04:13:53;98250.52;;;4.47;100.00
60337;BME280;46978;50.288;28.624;2023-04-06T04:14:54;98257.34;;;4.50;100.00
60337;BME280;46978;50.288;28.624;2023-04-06T04:15:56;98260.77;;;4.49;100.00
60337;BME280;46978;50.288;28.624;2023-04-06T04:16:58;98238.51;;;4.51;100.00
60337;BME280;46978;50.288;28.624;2023-04-06T04:18:00;98251.34;;;4.53;100.00
60337;BME280;46978;50.288;28.624;2023-04-06T04:19:01;98254.74;;;4.53;100.00
60337;BME280;46978;50.288;28.624;2023-04-06T04:20:04;98247.04;;;4.53;100.00
60337;BME280;46978;50.288;28.624;2023-04-06T04:21:06;98245.31;;;4.54;100.00
60337;BME280;46978;50.288;28.624;2023-04-06T04:22:08;98247.84;;;4.57;100.00
60337;BME280;46978;50.288;28.624;2023-04-06T04:23:10;98242.69;;;4.58;100.00
60337;BME280;46978;50.288;28.624;2023-04-06T04:24:13;98241.83;;;4.59;100.00
60337;BME280;46978;50.288;28.624;2023-04-06T04:25:16;98239.23;;;4.61;100.00
60337;BME280;46978;50.288;28.624;2023-04-06T04:26:18;98244.34;;;4.64;100.00
60337;BME280;46978;50.288;28.624;2023-04-06T04:27:20;98254.59;;;4.65;100.00
60337;BME280;46978;50.288;28.624;2023-04-06T04:28:23;98237.44;;;4.67;100.00
60337;BME280;46978;50.288;28.624;2023-04-06T04:29:26;98233.15;;;4.70;100.00
60337;BME280;46978;50.288;28.624;2023-04-06T04:30:31;98247.66;;;4.72;100.00
60337;BME280;46978;50.288;28.624;2023-04-06T04:31:33;98241.64;;;4.75;100.00
60337;BME280;46978;50.288;28.624;2023-04-06T04:32:35;98238.17;;;4.79;100.00
60337;BME280;46978;50.288;28.624;2023-04-06T04:33:36;98245.86;;;4.80;100.00
60337;BME280;46978;50.288;28.624;2023-04-06T04:34:38;98246.70;;;4.81;100.00
60337;BME280;46978;50.288;28.624;2023-04-06T04:35:40;98238.93;;;4.85;100.00
60337;BME280;46978;50.288;28.624;2023-04-06T04:36:41;98244.91;;;4.86;100.00
60337;BME280;46978;50.288;28.624;2023-04-06T04:37:43;98250.90;;;4.88;100.00
60337;BME280;46978;50.288;28.624;2023-04-06T04:38:45;98245.73;;;4.90;100.00
60337;BME280;46978;50.288;28.624;2023-04-06T04:39:47;98243.98;;;4.92;100.00
60337;BME280;46978;50.288;28.624;2023-04-06T04:40:49;98247.42;;;4.91;100.00
60337;BME280;46978;50.288;28.624;2023-04-06T04:41:50;98255.92;;;4.97;100.00
60337;BME280;46978;50.288;28.624;2023-04-06T04:42:52;98242.17;;;4.98;100.00
60337;BME280;46978;50.288;28.624;2023-04-06T04:43:54;98243.05;;;4.99;100.00
60337;BME280;46978;50.288;28.624;2023-04-06T04:44:56;98240.44;;;5.02;100.00
60337;BME280;46978;50.288;28.624;2023-04-06T04:45:58;98238.68;;;5.04;100.00
60337;BME280;46978;50.288;28.624;2023-04-06T04:47:00;98239.50;;;5.06;100.00
60337;BME280;46978;50.288;28.624;2023-04-06T04:48:01;98242.06;;;5.06;100.00
60337;BME280;46978;50.288;28.624;2023-04-06T04:49:03;98237.77;;;5.08;100.00
60337;BME280;46978;50.288;28.624;2023-04-06T04:50:25;98247.20;;;5.06;100.00
60337;BME280;46978;50.288;28.624;2023-04-06T04:51:27;98241.23;;;5.06;100.00
60337;BME280;46978;50.288;28.624;2023-04-06T04:52:29;98241.23;;;5.06;100.00
60337;BME280;46978;50.288;28.624;2023-04-06T04:53:30;98247.20;;;5.06;100.00
60337;BME280;46978;50.288;28.624;2023-04-06T04:54:32;98242.96;;;5.05;100.00
60337;BME280;46978;50.288;28.624;2023-04-06T04:55:34;98241.19;;;5.09;100.00
60337;BME280;46978;50.288;28.624;2023-04-06T04:56:36;98240.37;;;5.07;100.00
60337;BME280;46978;50.288;28.624;2023-04-06T04:57:39;98233.49;;;5.07;100.00
60337;BME280;46978;50.288;28.624;2023-04-06T04:58:41;98240.34;;;5.08;100.00
60337;BME280;46978;50.288;28.624;2023-04-06T04:59:43;98238.59;;;5.10;100.00
60337;BME280;46978;50.288;28.624;2023-04-06T05:00:48;98238.59;;;5.10;100.00
60337;BME280;46978;50.288;28.624;2023-04-06T05:01:50;98237.75;;;5.10;100.00
60337;BME280;46978;50.288;28.624;2023-04-06T05:02:52;98240.30;;;5.11;100.00
60337;BME280;46978;50.288;28.624;2023-04-06T05:03:54;98239.44;;;5.11;100.00
60337;BME280;46978;50.288;28.624;2023-04-06T05:04:55;98247.13;;;5.12;100.00
60337;BME280;46978;50.288;28.624;2023-04-06T05:05:57;98237.71;;;5.13;100.00
60337;BME280;46978;50.288;28.624;2023-04-06T05:07:07;98237.64;;;5.17;100.00
60337;BME280;46978;50.288;28.624;2023-04-06T05:08:09;98238.46;;;5.19;100.00
60337;BME280;46978;50.288;28.624;2023-04-06T05:09:11;98237.58;;;5.22;100.00
60337;BME280;46978;50.288;28.624;2023-04-06T05:10:13;98234.13;;;5.21;100.00
60337;BME280;46978;50.288;28.624;2023-04-06T05:11:15;98232.44;;;5.22;100.00
60337;BME280;46978;50.288;28.624;2023-04-06T05:12:18;98234.95;;;5.25;100.00
60337;BME280;46978;50.288;28.624;2023-04-06T05:13:20;98231.47;;;5.28;100.00
60337;BME280;46978;50.288;28.624;2023-04-06T05:14:22;98228.06;;;5.27;100.00
60337;BME280;46978;50.288;28.624;2023-04-06T05:15:23;98224.67;;;5.25;100.00
60337;BME280;46978;50.288;28.624;2023-04-06T05:16:25;98231.49;;;5.26;100.00
60337;BME280;46978;50.288;28.624;2023-04-06T05:17:29;98250.37;;;5.27;100.00
60337;BME280;46978;50.288;28.624;2023-04-06T05:18:31;98237.51;;;5.27;100.00
60337;BME280;46978;50.288;28.624;2023-04-06T05:19:33;98236.64;;;5.26;100.00
60337;BME280;46978;50.288;28.624;2023-04-06T05:20:35;98231.47;;;5.28;100.00
60337;BME280;46978;50.288;28.624;2023-04-06T05:21:37;98231.47;;;5.28;100.00
60337;BME280;46978;50.288;28.624;2023-04-06T05:22:39;98244.33;;;5.28;100.00
60337;BME280;46978;50.288;28.624;2023-04-06T05:23:40;98233.18;;;5.29;100.00
60337;BME280;46978;50.288;28.624;2023-04-06T05:24:43;98237.41;;;5.31;100.00
60337;BME280;46978;50.288;28.624;2023-04-06T05:25:45;98236.55;;;5.32;100.00